createdAt,value
2018-07-21T00:00:08.869Z,40.25
2018-07-21T00:02:37.517Z,40.42
2018-07-21T00:05:06.090Z,40.49
2018-07-21T00:07:34.761Z,40.61
2018-07-21T00:10:03.320Z,40.49
2018-07-21T00:12:31.906Z,40.20
2018-07-21T00:15:00.460Z,41.19
2018-07-21T00:17:30.294Z,40.93
2018-07-21T00:19:58.836Z,39.86
2018-07-21T00:22:27.327Z,40.64
2018-07-21T00:24:55.894Z,40.71
2018-07-21T00:27:24.926Z,40.52
2018-07-21T00:31:22.858Z,40.67
2018-07-21T00:33:51.462Z,40.88
2018-07-21T00:36:20.733Z,41.27
2018-07-21T00:38:49.381Z,40.10
2018-07-21T00:41:18.918Z,40.36
2018-07-21T00:43:48.296Z,40.82
2018-07-21T00:46:16.932Z,39.32
2018-07-21T00:48:45.857Z,40.88
2018-07-21T00:51:15.372Z,40.57
2018-07-21T00:53:44.061Z,40.15
2018-07-21T00:56:12.645Z,39.95
2018-07-21T00:58:41.248Z,40.29
2018-07-21T01:01:10.160Z,39.84
2018-07-21T01:03:38.885Z,40.54
2018-07-21T01:06:07.802Z,40.31
2018-07-21T01:08:38.100Z,39.77
2018-07-21T01:11:09.743Z,40.97
2018-07-21T01:13:38.310Z,41.26
2018-07-21T01:16:07.269Z,40.51
2018-07-21T01:18:36.160Z,41.53
2018-07-21T01:21:04.871Z,40.51
2018-07-21T01:23:33.463Z,41.11
2018-07-21T01:26:01.942Z,41.47
2018-07-21T01:28:31.368Z,41.84
2018-07-21T01:30:59.827Z,41.23
2018-07-21T01:33:28.414Z,42.21
2018-07-21T01:35:56.929Z,41.09
2018-07-21T01:38:25.409Z,41.00
2018-07-21T01:40:53.994Z,41.39
2018-07-21T01:43:22.617Z,41.18
2018-07-21T01:45:51.306Z,41.10
2018-07-21T01:48:19.762Z,41.17
2018-07-21T01:50:48.600Z,41.61
2018-07-21T01:53:17.105Z,42.16
2018-07-21T01:55:46.825Z,41.67
2018-07-21T01:58:15.440Z,41.88
2018-07-21T02:00:43.957Z,42.69
2018-07-21T02:03:12.538Z,42.58
2018-07-21T02:05:41.879Z,42.89
2018-07-21T02:08:11.118Z,41.74
2018-07-21T02:10:40.442Z,42.00
2018-07-21T02:13:09.022Z,42.61
2018-07-21T02:15:37.553Z,42.87
2018-07-21T02:18:06.098Z,42.33
2018-07-21T02:20:34.629Z,42.69
2018-07-21T02:23:03.980Z,43.54
2018-07-21T02:25:32.425Z,43.68
2018-07-21T02:28:01.093Z,42.86
2018-07-21T02:30:29.834Z,43.53
2018-07-21T02:32:58.496Z,43.22
2018-07-21T02:35:27.143Z,42.25
2018-07-21T02:37:55.678Z,43.51
2018-07-21T02:40:24.816Z,42.93
2018-07-21T02:42:54.679Z,43.72
2018-07-21T02:45:23.318Z,43.62
2018-07-21T02:47:51.861Z,43.21
2018-07-21T02:50:20.701Z,44.16
2018-07-21T02:52:50.976Z,43.46
2018-07-21T02:55:20.399Z,43.74
2018-07-21T02:57:48.970Z,44.08
2018-07-21T03:00:17.749Z,43.73
2018-07-21T03:02:46.375Z,43.45
2018-07-21T03:05:14.919Z,43.48
2018-07-21T03:07:43.500Z,43.89
2018-07-21T03:10:12.291Z,44.25
2018-07-21T03:12:41.825Z,44.55
2018-07-21T03:15:10.612Z,44.08
2018-07-21T03:17:39.309Z,44.36
2018-07-21T03:20:07.878Z,44.41
2018-07-21T03:22:37.085Z,43.65
2018-07-21T03:25:06.018Z,43.78
2018-07-21T03:27:34.629Z,44.24
2018-07-21T03:30:04.934Z,44.22
2018-07-21T03:32:33.755Z,44.92
2018-07-21T03:35:02.399Z,44.41
2018-07-21T03:37:32.902Z,44.80
2018-07-21T03:40:01.678Z,44.55
2018-07-21T03:42:30.676Z,44.16
2018-07-21T03:44:59.442Z,43.96
2018-07-21T03:47:28.536Z,44.45
2018-07-21T03:49:57.121Z,44.35
2018-07-21T03:52:25.701Z,44.32
2018-07-21T03:54:54.809Z,44.59
2018-07-21T03:57:23.392Z,44.46
2018-07-21T03:59:51.959Z,44.92
2018-07-21T04:02:21.154Z,44.97
2018-07-21T04:04:51.509Z,44.06
2018-07-21T04:07:21.089Z,44.41
2018-07-21T04:09:49.598Z,44.75
2018-07-21T04:12:18.846Z,45.20
2018-07-21T04:14:47.380Z,44.55
2018-07-21T04:17:24.457Z,44.73
2018-07-21T04:19:53.881Z,44.78
2018-07-21T04:22:24.267Z,44.82
2018-07-21T04:24:54.031Z,44.61
2018-07-21T04:27:23.621Z,45.03
2018-07-21T04:29:53.803Z,44.84
2018-07-21T04:32:23.178Z,44.92
2018-07-21T04:34:51.862Z,45.59
2018-07-21T04:37:20.551Z,45.20
2018-07-21T04:39:49.191Z,45.20
2018-07-21T04:42:18.646Z,45.35
2018-07-21T04:44:47.103Z,44.98
2018-07-21T04:47:16.305Z,44.88
2018-07-21T04:49:44.824Z,44.89
2018-07-21T04:52:13.339Z,45.33
2018-07-21T04:54:42.331Z,44.50
2018-07-21T04:57:10.897Z,45.25
2018-07-21T04:59:39.554Z,45.62
2018-07-21T05:02:08.489Z,45.97
2018-07-21T05:04:37.024Z,45.13
2018-07-21T05:07:05.470Z,45.46
2018-07-21T05:09:33.985Z,45.92
2018-07-21T05:12:03.624Z,45.62
2018-07-21T05:14:32.308Z,44.30
2018-07-21T05:17:01.418Z,45.42
2018-07-21T05:19:30.084Z,44.64
2018-07-21T05:21:58.542Z,45.24
2018-07-21T05:24:28.369Z,45.23
2018-07-21T05:26:56.886Z,44.25
2018-07-21T05:29:25.628Z,44.38
2018-07-21T05:31:54.469Z,44.70
2018-07-21T05:34:24.135Z,44.20
2018-07-21T05:36:54.300Z,43.52
2018-07-21T05:39:23.555Z,44.35
2018-07-21T05:41:52.025Z,44.55
2018-07-21T05:44:21.357Z,44.56
2018-07-21T05:46:51.597Z,43.53
2018-07-21T05:49:22.414Z,43.49
2018-07-21T05:51:51.011Z,43.85
2018-07-21T05:54:21.111Z,43.91
2018-07-21T05:56:50.760Z,43.78
2018-07-21T05:59:21.519Z,43.13
2018-07-21T06:01:50.995Z,44.24
2018-07-21T06:04:19.754Z,43.60
2018-07-21T06:06:48.248Z,42.97
2018-07-21T06:09:16.872Z,43.11
2018-07-21T06:11:45.355Z,42.95
2018-07-21T06:14:14.512Z,43.44
2018-07-21T06:16:44.256Z,43.16
2018-07-21T06:19:12.912Z,43.54
2018-07-21T06:21:41.994Z,42.56
2018-07-21T06:24:10.693Z,43.02
2018-07-21T06:26:39.998Z,43.40
2018-07-21T06:29:10.043Z,43.25
2018-07-21T06:31:38.558Z,43.30
2018-07-21T06:34:07.575Z,43.85
2018-07-21T06:36:37.748Z,43.51
2018-07-21T06:39:09.597Z,42.15
2018-07-21T06:41:40.001Z,41.31
2018-07-21T06:44:10.568Z,43.30
2018-07-21T06:46:39.106Z,41.89
2018-07-21T06:49:07.643Z,42.04
2018-07-21T06:51:38.143Z,42.53
2018-07-21T06:54:06.810Z,41.65
2018-07-21T06:56:35.327Z,42.07
2018-07-21T06:59:04.205Z,42.41
2018-07-21T07:01:33.776Z,41.27
2018-07-21T07:04:04.670Z,42.30
2018-07-21T07:06:33.173Z,42.54
2018-07-21T07:09:03.757Z,43.27
2018-07-21T07:11:33.194Z,43.37
2018-07-21T07:14:02.765Z,42.77
2018-07-21T07:16:33.137Z,43.70
2018-07-21T07:19:01.629Z,42.73
2018-07-21T07:21:30.150Z,42.29
2018-07-21T07:23:59.594Z,42.14
2018-07-21T07:26:28.779Z,42.22
2018-07-21T07:28:57.345Z,42.06
2018-07-21T07:31:26.969Z,41.33
2018-07-21T07:33:55.661Z,40.61
2018-07-21T07:36:24.527Z,41.84
2018-07-21T07:38:53.239Z,41.18
2018-07-21T07:41:21.806Z,40.75
2018-07-21T07:43:50.323Z,40.85
2018-07-21T07:46:18.871Z,41.03
2018-07-21T07:48:47.372Z,41.34
2018-07-21T07:51:15.917Z,42.23
2018-07-21T07:53:45.053Z,41.25
2018-07-21T07:56:14.218Z,42.17
2018-07-21T07:58:42.723Z,42.38
2018-07-21T08:01:12.962Z,41.28
2018-07-21T08:03:41.598Z,41.38
2018-07-21T08:06:10.299Z,41.67
2018-07-21T08:08:38.808Z,41.45
2018-07-21T08:11:09.124Z,41.77
2018-07-21T08:13:37.725Z,42.71
2018-07-21T08:16:06.651Z,42.53
2018-07-21T08:18:35.809Z,41.62
2018-07-21T08:21:04.549Z,41.01
2018-07-21T08:23:33.114Z,40.76
2018-07-21T08:26:02.084Z,41.01
2018-07-21T08:28:31.103Z,41.38
2018-07-21T08:31:00.475Z,40.43
2018-07-21T08:33:32.153Z,40.36
2018-07-21T08:36:01.488Z,40.22
2018-07-21T08:38:30.527Z,39.89
2018-07-21T08:40:58.990Z,39.60
2018-07-21T08:43:27.588Z,40.15
2018-07-21T08:45:56.733Z,40.11
2018-07-21T08:48:25.632Z,39.77
2018-07-21T08:50:54.700Z,39.55
2018-07-21T08:53:23.230Z,39.83
2018-07-21T08:55:52.025Z,38.65
2018-07-21T08:58:21.819Z,39.07
2018-07-21T09:00:50.833Z,39.59
2018-07-21T09:03:19.345Z,40.12
2018-07-21T09:05:49.020Z,40.15
2018-07-21T09:08:18.079Z,39.78
2018-07-21T09:10:46.617Z,39.46
2018-07-21T09:13:15.505Z,38.54
2018-07-21T09:15:44.077Z,39.14
2018-07-21T09:18:12.530Z,37.98
2018-07-21T09:20:41.027Z,38.63
2018-07-21T09:23:09.569Z,39.34
2018-07-21T09:25:38.082Z,39.60
2018-07-21T09:28:07.417Z,38.99
2018-07-21T09:30:36.580Z,38.99
2018-07-21T09:33:05.129Z,39.15
2018-07-21T09:35:34.299Z,39.25
2018-07-21T09:38:04.011Z,38.74
2018-07-21T09:40:32.588Z,38.57
2018-07-21T09:43:02.127Z,37.11
2018-07-21T09:45:30.604Z,37.29
2018-07-21T09:47:59.173Z,37.37
2018-07-21T09:50:27.812Z,35.96
2018-07-21T09:52:57.306Z,37.12
2018-07-21T09:55:26.473Z,37.36
2018-07-21T09:57:55.098Z,37.24
2018-07-21T10:00:30.292Z,36.57
2018-07-21T10:02:58.943Z,37.20
2018-07-21T10:05:28.023Z,36.51
2018-07-21T10:07:57.397Z,36.70
2018-07-21T10:10:25.906Z,35.75
2018-07-21T10:12:54.454Z,35.27
2018-07-21T10:15:23.140Z,35.61
2018-07-21T10:17:51.724Z,33.93
2018-07-21T10:20:21.784Z,35.17
2018-07-21T10:22:52.236Z,35.53
2018-07-21T10:25:26.359Z,35.49
2018-07-21T10:28:01.075Z,34.01
2018-07-21T10:30:29.677Z,35.38
2018-07-21T10:32:58.914Z,33.78
2018-07-21T10:35:28.365Z,34.05
2018-07-21T10:37:56.899Z,33.33
2018-07-21T10:40:26.586Z,33.00
2018-07-21T10:42:56.525Z,33.18
2018-07-21T10:45:25.124Z,32.43
2018-07-21T10:47:54.487Z,32.06
2018-07-21T10:50:23.010Z,31.44
2018-07-21T10:52:51.590Z,31.62
2018-07-21T10:55:21.352Z,32.84
2018-07-21T10:57:50.049Z,32.17
2018-07-21T11:00:18.549Z,31.75
2018-07-21T11:02:47.030Z,32.52
2018-07-21T11:05:15.994Z,33.15
2018-07-21T11:07:44.559Z,32.46
2018-07-21T11:10:13.012Z,32.26
2018-07-21T11:12:41.611Z,32.54
2018-07-21T11:15:10.124Z,32.54
2018-07-21T11:17:39.058Z,32.66
2018-07-21T11:20:08.006Z,33.13
2018-07-21T11:22:37.112Z,33.00
2018-07-21T11:25:06.563Z,32.51
2018-07-21T11:27:35.564Z,32.02
2018-07-21T11:30:08.479Z,32.53
2018-07-21T11:32:37.142Z,32.98
2018-07-21T11:35:05.820Z,32.45
2018-07-21T11:37:34.369Z,32.17
2018-07-21T11:40:03.153Z,31.93
2018-07-21T11:42:31.661Z,31.62
2018-07-21T11:45:00.197Z,30.87
2018-07-21T11:47:29.384Z,30.97
2018-07-21T11:49:58.000Z,31.45
2018-07-21T11:52:27.611Z,32.06
2018-07-21T11:54:56.279Z,31.74
2018-07-21T11:57:24.825Z,30.52
2018-07-21T11:59:53.542Z,31.64
2018-07-21T12:02:23.030Z,31.59
2018-07-21T12:04:51.594Z,31.56
2018-07-21T12:07:20.137Z,32.35
2018-07-21T12:09:48.767Z,31.32
2018-07-21T12:12:17.223Z,31.15
2018-07-21T12:14:46.907Z,31.56
2018-07-21T12:17:15.569Z,30.33
2018-07-21T12:19:44.034Z,30.84
2018-07-21T12:22:15.546Z,31.53
2018-07-21T12:24:45.084Z,30.22
2018-07-21T12:27:13.674Z,30.62
2018-07-21T12:29:42.621Z,31.90
2018-07-21T12:32:11.456Z,31.32
2018-07-21T12:34:40.069Z,31.20
2018-07-21T12:37:10.366Z,32.30
2018-07-21T12:39:38.954Z,32.13
2018-07-21T12:42:07.679Z,32.03
2018-07-21T12:44:36.270Z,32.54
2018-07-21T12:47:05.672Z,32.12
2018-07-21T12:49:34.813Z,32.15
2018-07-21T12:52:04.930Z,32.20
2018-07-21T12:54:33.426Z,31.43
2018-07-21T12:57:02.460Z,31.83
2018-07-21T12:59:31.176Z,31.52
2018-07-21T13:02:00.730Z,32.77
2018-07-21T13:04:29.315Z,32.37
2018-07-21T13:06:58.146Z,32.96
2018-07-21T13:09:26.688Z,32.76
2018-07-21T13:11:56.048Z,32.73
2018-07-21T13:14:24.590Z,31.76
2018-07-21T13:16:53.189Z,32.04
2018-07-21T13:19:21.728Z,32.63
2018-07-21T13:21:50.267Z,31.15
2018-07-21T13:24:18.807Z,31.99
2018-07-21T13:26:47.838Z,32.50
2018-07-21T13:29:16.371Z,31.94
2018-07-21T13:31:45.632Z,32.69
2018-07-21T13:34:14.966Z,33.44
2018-07-21T13:36:43.462Z,33.60
2018-07-21T13:39:13.337Z,32.63
2018-07-21T13:41:41.794Z,32.25
2018-07-21T13:44:10.377Z,32.26
2018-07-21T13:46:39.866Z,33.36
2018-07-21T13:49:08.501Z,32.76
2018-07-21T13:51:38.123Z,32.09
2018-07-21T13:54:06.637Z,33.01
2018-07-21T13:56:35.269Z,33.06
2018-07-21T13:59:03.751Z,32.16
2018-07-21T14:01:33.192Z,31.94
2018-07-21T14:04:01.817Z,32.13
2018-07-21T14:06:30.298Z,31.93
2018-07-21T14:08:58.983Z,32.69
2018-07-21T14:11:28.558Z,33.00
2018-07-21T14:13:57.274Z,32.48
2018-07-21T14:16:25.786Z,32.11
2018-07-21T14:18:54.811Z,32.59
2018-07-21T14:21:23.416Z,31.31
2018-07-21T14:23:51.998Z,31.93
2018-07-21T14:26:20.574Z,30.92
2018-07-21T14:28:49.076Z,30.92
2018-07-21T14:31:17.719Z,30.58
2018-07-21T14:33:46.321Z,30.40
2018-07-21T14:36:14.903Z,30.80
2018-07-21T14:38:43.364Z,30.79
2018-07-21T14:41:12.568Z,30.96
2018-07-21T14:43:41.803Z,31.27
2018-07-21T14:46:10.442Z,30.45
2018-07-21T14:48:39.475Z,30.39
2018-07-21T14:51:08.837Z,31.36
2018-07-21T14:53:38.773Z,31.37
2018-07-21T14:56:08.665Z,31.79
2018-07-21T14:58:38.991Z,31.56
2018-07-21T15:01:07.708Z,30.34
2018-07-21T15:03:37.255Z,30.61
2018-07-21T15:06:07.205Z,29.91
2018-07-21T15:08:35.676Z,31.87
2018-07-21T15:11:04.212Z,31.76
2018-07-21T15:13:33.562Z,32.50
2018-07-21T15:16:02.018Z,31.90
2018-07-21T15:18:30.630Z,32.04
2018-07-21T15:21:00.175Z,31.80
2018-07-21T15:23:28.579Z,31.72
2018-07-21T15:25:57.135Z,32.79
2018-07-21T15:28:26.459Z,32.69
2018-07-21T15:30:55.146Z,32.91
2018-07-21T15:33:24.929Z,32.13
2018-07-21T15:35:55.010Z,32.74
2018-07-21T15:38:23.887Z,33.37
2018-07-21T15:40:52.607Z,32.75
2018-07-21T15:43:21.399Z,32.18
2018-07-21T15:45:50.094Z,32.59
2018-07-21T15:48:18.561Z,32.57
2018-07-21T15:50:47.172Z,32.20
2018-07-21T15:53:16.011Z,32.33
2018-07-21T15:55:45.176Z,33.45
2018-07-21T15:58:13.806Z,32.85
2018-07-21T16:00:42.412Z,32.77
2018-07-21T16:03:10.888Z,33.11
2018-07-21T16:05:39.849Z,32.82
2018-07-21T16:08:08.557Z,33.47
2018-07-21T16:10:37.140Z,34.18
2018-07-21T16:13:06.117Z,33.55
2018-07-21T16:15:34.667Z,32.83
2018-07-21T16:18:03.362Z,32.74
2018-07-21T16:20:31.898Z,33.69
2018-07-21T16:23:00.583Z,33.57
2018-07-21T16:25:29.185Z,33.41
2018-07-21T16:27:58.040Z,33.99
2018-07-21T16:30:27.103Z,34.37
2018-07-21T16:32:55.731Z,33.66
2018-07-21T16:35:24.271Z,33.89
2018-07-21T16:37:52.880Z,33.63
2018-07-21T16:40:21.467Z,34.32
2018-07-21T16:42:50.121Z,33.38
2018-07-21T16:45:19.847Z,33.17
2018-07-21T16:47:48.442Z,33.39
2018-07-21T16:50:16.953Z,32.61
2018-07-21T16:52:45.575Z,32.25
2018-07-21T16:55:14.674Z,32.58
2018-07-21T16:57:43.848Z,33.34
2018-07-21T17:00:12.534Z,33.24
2018-07-21T17:02:41.984Z,33.49
2018-07-21T17:05:10.769Z,33.00
2018-07-21T17:07:39.465Z,32.79
2018-07-21T17:10:07.999Z,32.91
2018-07-21T17:12:37.516Z,33.25
2018-07-21T17:15:06.518Z,33.68
2018-07-21T17:17:35.041Z,33.30
2018-07-21T17:20:03.715Z,33.94
2018-07-21T17:22:32.908Z,33.12
2018-07-21T17:25:01.916Z,33.89
2018-07-21T17:27:30.732Z,33.79
2018-07-21T17:30:01.057Z,34.19
2018-07-21T17:32:29.780Z,33.50
2018-07-21T17:34:58.787Z,33.70
2018-07-21T17:37:27.329Z,33.77
2018-07-21T17:39:55.951Z,34.51
2018-07-21T17:42:24.425Z,34.97
2018-07-21T17:44:54.842Z,35.02
2018-07-21T17:47:23.364Z,35.52
2018-07-21T17:49:51.918Z,35.63
2018-07-21T17:52:20.823Z,35.00
2018-07-21T17:54:49.299Z,35.63
2018-07-21T17:57:18.482Z,35.79
2018-07-21T17:59:47.603Z,35.73
2018-07-21T18:02:16.310Z,36.51
2018-07-21T18:04:45.014Z,37.22
2018-07-21T18:07:15.127Z,36.79
2018-07-21T18:09:44.676Z,36.13
2018-07-21T18:12:14.058Z,36.86
2018-07-21T18:14:42.517Z,37.15
2018-07-21T18:17:10.998Z,37.42
2018-07-21T18:19:39.721Z,36.90
2018-07-21T18:22:09.224Z,37.41
2018-07-21T18:24:38.178Z,37.01
2018-07-21T18:27:07.046Z,38.22
2018-07-21T18:29:35.628Z,37.31
2018-07-21T18:32:04.304Z,37.12
2018-07-21T18:34:33.778Z,38.27
2018-07-21T18:37:03.524Z,38.04
2018-07-21T18:39:32.028Z,37.58
2018-07-21T18:42:00.576Z,38.33
2018-07-21T18:44:29.037Z,38.52
2018-07-21T18:46:58.174Z,38.64
2018-07-21T18:49:26.633Z,39.00
2018-07-21T18:51:55.117Z,38.98
2018-07-21T18:54:24.455Z,38.80
2018-07-21T18:56:53.131Z,39.48
2018-07-21T18:59:21.831Z,39.97
2018-07-21T19:01:52.013Z,39.67
2018-07-21T19:04:21.240Z,40.51
2018-07-21T19:06:49.899Z,40.09
2018-07-21T19:09:18.305Z,40.21
2018-07-21T19:11:50.972Z,41.32
2018-07-21T19:14:20.516Z,41.04
2018-07-21T19:16:49.084Z,40.97
2018-07-21T19:19:18.970Z,41.02
2018-07-21T19:21:47.646Z,40.67
2018-07-21T19:24:16.229Z,41.18
2018-07-21T19:26:49.879Z,40.81
2018-07-21T19:29:19.191Z,41.02
2018-07-21T19:31:53.117Z,40.87
2018-07-21T19:34:21.645Z,41.81
2018-07-21T19:36:50.131Z,40.85
2018-07-21T19:39:18.688Z,41.85
2018-07-21T19:41:52.805Z,41.59
2018-07-21T19:44:21.312Z,41.44
2018-07-21T19:46:50.326Z,42.58
2018-07-21T19:49:19.498Z,42.14
2018-07-21T19:51:48.075Z,43.17
2018-07-21T19:54:16.774Z,43.33
2018-07-21T19:56:46.485Z,43.29
2018-07-21T19:59:15.245Z,43.12
2018-07-21T20:01:43.860Z,42.95
2018-07-21T20:04:14.576Z,43.93
2018-07-21T20:06:44.072Z,42.96
2018-07-21T20:09:12.960Z,44.05
2018-07-21T20:11:42.961Z,44.46
2018-07-21T20:14:12.675Z,44.21
2018-07-21T20:16:41.775Z,45.76
2018-07-21T20:19:10.414Z,45.80
2018-07-21T20:21:39.632Z,45.44
2018-07-21T20:24:08.500Z,45.61
2018-07-21T20:26:37.020Z,46.03
2018-07-21T20:29:05.460Z,46.67
2018-07-21T20:31:34.122Z,47.28
2018-07-21T20:34:02.727Z,47.57
2018-07-21T20:36:31.209Z,46.47
2018-07-21T20:39:00.072Z,46.45
2018-07-21T20:41:28.727Z,47.21
2018-07-21T20:43:57.328Z,47.28
2018-07-21T20:46:25.750Z,46.41
2018-07-21T20:48:55.203Z,46.50
2018-07-21T20:51:24.466Z,46.81
2018-07-21T20:53:52.998Z,46.97
2018-07-21T20:56:23.138Z,46.65
2018-07-21T20:58:51.766Z,47.38
2018-07-21T21:01:20.334Z,46.71
2018-07-21T21:03:50.245Z,47.18
2018-07-21T21:06:18.781Z,46.51
2018-07-21T21:08:47.451Z,46.01
2018-07-21T21:11:16.127Z,47.47
2018-07-21T21:13:47.957Z,47.62
2018-07-21T21:16:16.587Z,47.48
2018-07-21T21:18:45.509Z,48.32
2018-07-21T21:21:13.981Z,47.86
2018-07-21T21:23:45.566Z,47.75
2018-07-21T21:26:14.185Z,48.34
2018-07-21T21:28:43.668Z,49.13
2018-07-21T21:31:12.690Z,48.17
2018-07-21T21:33:41.338Z,48.26
2018-07-21T21:36:09.978Z,48.38
2018-07-21T21:38:39.114Z,48.28
2018-07-21T21:41:09.088Z,48.38
2018-07-21T21:43:37.589Z,47.60
2018-07-21T21:46:06.590Z,47.69
2018-07-21T21:48:35.107Z,48.55
2018-07-21T21:51:03.593Z,48.50
2018-07-21T21:53:32.210Z,49.50
2018-07-21T21:56:00.658Z,48.90
2018-07-21T21:58:29.199Z,49.82
2018-07-21T22:01:13.038Z,48.84
2018-07-21T22:03:41.702Z,49.24
2018-07-21T22:06:10.293Z,49.10
2018-07-21T22:08:39.848Z,48.70
2018-07-21T22:11:09.811Z,49.90
2018-07-21T22:13:38.500Z,49.36
2018-07-21T22:16:07.455Z,49.93
2018-07-21T22:18:35.977Z,50.58
2018-07-21T22:21:05.028Z,49.96
2018-07-21T22:23:34.371Z,49.87
2018-07-21T22:26:05.095Z,49.15
2018-07-21T22:28:33.751Z,49.95
2018-07-21T22:31:02.456Z,50.13
2018-07-21T22:33:31.368Z,49.79
2018-07-21T22:35:59.886Z,49.80
2018-07-21T22:38:29.210Z,49.89
2018-07-21T22:40:58.217Z,51.03
2018-07-21T22:43:26.755Z,51.50
2018-07-21T22:45:55.257Z,51.04
2018-07-21T22:48:24.310Z,51.59
2018-07-21T22:50:52.799Z,51.26
2018-07-21T22:53:21.305Z,51.45
2018-07-21T22:55:49.926Z,51.45
2018-07-21T22:58:18.417Z,51.49
2018-07-21T23:00:47.061Z,51.00
2018-07-21T23:03:15.784Z,50.77
2018-07-21T23:05:45.117Z,51.87
2018-07-21T23:08:14.458Z,51.37
2018-07-21T23:10:43.267Z,51.88
2018-07-21T23:13:13.346Z,51.71
2018-07-21T23:15:43.794Z,51.56
2018-07-21T23:18:13.027Z,51.72
2018-07-21T23:20:41.611Z,52.03
2018-07-21T23:23:11.769Z,51.35
2018-07-21T23:25:40.869Z,51.84
2018-07-21T23:28:09.493Z,52.92
2018-07-21T23:30:38.390Z,52.66
2018-07-21T23:33:08.163Z,52.81
2018-07-21T23:35:36.674Z,52.54
2018-07-21T23:38:05.267Z,52.06
2018-07-21T23:40:33.859Z,52.78
2018-07-21T23:43:02.321Z,52.25
2018-07-21T23:45:30.777Z,53.16
2018-07-21T23:47:59.505Z,52.93
2018-07-21T23:50:28.434Z,53.08
2018-07-21T23:52:57.104Z,53.38
2018-07-21T23:55:25.759Z,53.46
2018-07-21T23:57:55.515Z,53.39
